createdAt,value
2017-03-08T00:00:10.562Z,1018.47
2017-03-08T00:00:51.058Z,1018.41
2017-03-08T00:01:31.509Z,1018.42
2017-03-08T00:02:12.012Z,1018.42
2017-03-08T00:02:52.484Z,1018.4
2017-03-08T00:03:32.963Z,1018.44
2017-03-08T00:04:13.419Z,1018.42
2017-03-08T00:04:53.927Z,1018.38
2017-03-08T00:05:34.370Z,1018.38
2017-03-08T00:06:14.906Z,1018.35
2017-03-08T00:06:55.373Z,1018.32
2017-03-08T00:07:35.824Z,1018.3
2017-03-08T00:08:16.302Z,1018.29
2017-03-08T00:08:56.729Z,1018.28
2017-03-08T00:09:37.186Z,1018.31
2017-03-08T00:10:17.766Z,1018.35
2017-03-08T00:10:58.249Z,1018.35
2017-03-08T00:11:38.696Z,1018.38
2017-03-08T00:12:19.133Z,1018.39
2017-03-08T00:12:59.587Z,1018.43
2017-03-08T00:13:40.080Z,1018.46
2017-03-08T00:14:20.681Z,1018.49
2017-03-08T00:15:01.150Z,1018.44
2017-03-08T00:15:41.641Z,1018.44
2017-03-08T00:16:22.068Z,1018.46
2017-03-08T00:17:02.559Z,1018.46
2017-03-08T00:17:43.030Z,1018.4
2017-03-08T00:18:23.536Z,1018.43
2017-03-08T00:19:03.939Z,1018.45
2017-03-08T00:19:44.435Z,1018.45
2017-03-08T00:20:25.052Z,1018.45
2017-03-08T00:21:05.509Z,1018.44
2017-03-08T00:21:45.975Z,1018.4
2017-03-08T00:22:26.471Z,1018.42
2017-03-08T00:23:06.984Z,1018.39
2017-03-08T00:23:47.451Z,1018.41
2017-03-08T00:24:27.982Z,1018.42
2017-03-08T00:25:08.407Z,1018.39
2017-03-08T00:25:48.900Z,1018.44
2017-03-08T00:26:29.397Z,1018.44
2017-03-08T00:27:09.917Z,1018.45
2017-03-08T00:27:50.403Z,1018.45
2017-03-08T00:28:30.851Z,1018.44
2017-03-08T00:29:11.328Z,1018.48
2017-03-08T00:29:51.801Z,1018.45
2017-03-08T00:30:32.278Z,1018.49
2017-03-08T00:31:12.745Z,1018.48
2017-03-08T00:31:53.201Z,1018.47
2017-03-08T00:32:33.707Z,1018.43
2017-03-08T00:33:14.163Z,1018.42
2017-03-08T00:33:54.717Z,1018.45
2017-03-08T00:34:35.120Z,1018.45
2017-03-08T00:35:15.680Z,1018.44
2017-03-08T00:35:56.115Z,1018.42
2017-03-08T00:36:36.577Z,1018.43
2017-03-08T00:37:17.047Z,1018.44
2017-03-08T00:37:57.535Z,1018.47
2017-03-08T00:38:37.991Z,1018.47
2017-03-08T00:39:18.454Z,1018.46
2017-03-08T00:39:58.991Z,1018.45
2017-03-08T00:40:39.440Z,1018.43
2017-03-08T00:41:19.915Z,1018.37
2017-03-08T00:42:00.395Z,1018.32
2017-03-08T00:42:40.910Z,1018.34
2017-03-08T00:43:21.322Z,1018.34
2017-03-08T00:44:01.820Z,1018.35
2017-03-08T00:44:42.371Z,1018.29
2017-03-08T00:45:22.909Z,1018.3
2017-03-08T00:46:03.353Z,1018.3
2017-03-08T00:46:43.841Z,1018.24
2017-03-08T00:47:24.320Z,1018.23
2017-03-08T00:48:04.830Z,1018.24
2017-03-08T00:48:45.311Z,1018.27
2017-03-08T00:49:25.831Z,1018.26
2017-03-08T00:50:06.299Z,1018.24
2017-03-08T00:50:46.728Z,1018.26
2017-03-08T00:51:27.198Z,1018.31
2017-03-08T00:52:07.694Z,1018.32
2017-03-08T00:52:48.183Z,1018.32
2017-03-08T00:53:28.682Z,1018.34
2017-03-08T00:54:09.153Z,1018.38
2017-03-08T00:54:49.632Z,1018.43
2017-03-08T00:55:30.132Z,1018.4
2017-03-08T00:56:10.595Z,1018.42
2017-03-08T00:56:51.060Z,1018.41
2017-03-08T00:57:31.588Z,1018.4
2017-03-08T00:58:12.079Z,1018.38
2017-03-08T00:58:52.532Z,1018.35
2017-03-08T00:59:32.995Z,1018.31
2017-03-08T01:00:13.482Z,1018.29
2017-03-08T01:00:53.925Z,1018.3
2017-03-08T01:01:34.448Z,1018.27
2017-03-08T01:02:14.910Z,1018.29
2017-03-08T01:02:55.381Z,1018.26
2017-03-08T01:03:35.882Z,1018.29
2017-03-08T01:04:16.348Z,1018.23
2017-03-08T01:04:56.861Z,1018.26
2017-03-08T01:05:37.351Z,1018.27
2017-03-08T01:06:17.830Z,1018.26
2017-03-08T01:06:58.332Z,1018.29
2017-03-08T01:07:38.818Z,1018.3
2017-03-08T01:08:19.317Z,1018.34
2017-03-08T01:08:59.760Z,1018.39
2017-03-08T01:09:40.265Z,1018.39
2017-03-08T01:10:20.720Z,1018.41
2017-03-08T01:11:01.243Z,1018.33
2017-03-08T01:11:41.721Z,1018.35
2017-03-08T01:12:22.382Z,1018.33
2017-03-08T01:13:02.860Z,1018.3
2017-03-08T01:13:43.322Z,1018.23
2017-03-08T01:14:23.823Z,1018.22
2017-03-08T01:15:04.271Z,1018.14
2017-03-08T01:15:44.734Z,1018.04
2017-03-08T01:16:25.213Z,1018.03
2017-03-08T01:17:05.724Z,1017.96
2017-03-08T01:17:46.247Z,1017.98
2017-03-08T01:18:26.745Z,1018.04
2017-03-08T01:19:07.262Z,1018.02
2017-03-08T01:19:47.726Z,1018.04
2017-03-08T01:20:28.249Z,1018.05
2017-03-08T01:21:08.723Z,1018.03
2017-03-08T01:21:49.141Z,1018.04
2017-03-08T01:22:29.701Z,1017.97
2017-03-08T01:23:10.169Z,1018
2017-03-08T01:23:50.678Z,1018.02
2017-03-08T01:24:31.084Z,1018.05
2017-03-08T01:25:11.647Z,1018.06
2017-03-08T01:25:52.135Z,1018.12
2017-03-08T01:26:32.591Z,1018.08
2017-03-08T01:27:13.100Z,1018.15
2017-03-08T01:27:53.549Z,1018.16
2017-03-08T01:28:34.003Z,1018.16
2017-03-08T01:29:14.443Z,1018.18
2017-03-08T01:29:54.925Z,1018.18
2017-03-08T01:30:35.429Z,1018.19
2017-03-08T01:31:15.903Z,1018.2
2017-03-08T01:31:56.447Z,1018.18
2017-03-08T01:32:36.856Z,1018.21
2017-03-08T01:33:17.314Z,1018.18
2017-03-08T01:33:57.824Z,1018.15
2017-03-08T01:34:38.293Z,1018.14
2017-03-08T01:35:18.733Z,1018.17
2017-03-08T01:35:59.202Z,1018.19
2017-03-08T01:36:39.685Z,1018.16
2017-03-08T01:37:20.177Z,1018.19
2017-03-08T01:38:00.616Z,1018.16
2017-03-08T01:38:41.084Z,1018.15
2017-03-08T01:39:21.569Z,1018.13
2017-03-08T01:40:02.053Z,1018.09
2017-03-08T01:40:42.495Z,1018.09
2017-03-08T01:41:22.970Z,1018.08
2017-03-08T01:42:03.467Z,1018.03
2017-03-08T01:42:43.974Z,1018.02
2017-03-08T01:43:24.461Z,1018.03
2017-03-08T01:44:04.963Z,1018.01
2017-03-08T01:44:45.426Z,1017.98
2017-03-08T01:45:25.862Z,1017.98
2017-03-08T01:46:06.373Z,1017.96
2017-03-08T01:46:46.805Z,1017.98
2017-03-08T01:47:27.249Z,1018
2017-03-08T01:48:07.806Z,1018
2017-03-08T01:48:48.248Z,1017.99
2017-03-08T01:49:28.746Z,1017.99
2017-03-08T01:50:09.277Z,1017.95
2017-03-08T01:50:49.770Z,1017.97
2017-03-08T01:51:30.208Z,1017.97
2017-03-08T01:52:10.673Z,1017.96
2017-03-08T01:52:51.150Z,1017.98
2017-03-08T01:53:31.662Z,1018
2017-03-08T01:54:12.150Z,1018.02
2017-03-08T01:54:52.623Z,1017.99
2017-03-08T01:55:33.136Z,1018
2017-03-08T01:56:13.712Z,1018.03
2017-03-08T01:56:54.189Z,1018.02
2017-03-08T01:57:34.649Z,1018.01
2017-03-08T01:58:15.096Z,1017.98
2017-03-08T01:58:55.609Z,1017.98
2017-03-08T01:59:36.110Z,1018.01
2017-03-08T02:00:16.675Z,1018
2017-03-08T02:00:57.111Z,1018.01
2017-03-08T02:01:37.634Z,1017.92
2017-03-08T02:02:18.117Z,1017.91
2017-03-08T02:02:58.562Z,1017.92
2017-03-08T02:03:39.111Z,1017.94
2017-03-08T02:04:19.541Z,1017.93
2017-03-08T02:05:00.065Z,1017.94
2017-03-08T02:05:40.479Z,1017.93
2017-03-08T02:06:20.998Z,1017.94
2017-03-08T02:07:01.444Z,1017.99
2017-03-08T02:07:41.921Z,1017.98
2017-03-08T02:08:22.467Z,1017.98
2017-03-08T02:09:02.954Z,1017.99
2017-03-08T02:09:43.410Z,1017.99
2017-03-08T02:10:23.869Z,1018
2017-03-08T02:11:04.365Z,1018.01
2017-03-08T02:11:44.886Z,1017.98
2017-03-08T02:12:25.333Z,1018.02
2017-03-08T02:13:05.839Z,1018.01
2017-03-08T02:13:46.292Z,1018.03
2017-03-08T02:14:26.803Z,1018.05
2017-03-08T02:15:07.278Z,1018.1
2017-03-08T02:15:47.728Z,1018.09
2017-03-08T02:16:28.190Z,1018.1
2017-03-08T02:17:08.728Z,1018.07
2017-03-08T02:17:49.214Z,1018.08
2017-03-08T02:18:29.722Z,1018.12
2017-03-08T02:19:10.264Z,1018.11
2017-03-08T02:19:50.792Z,1018.1
2017-03-08T02:20:31.241Z,1018.11
2017-03-08T02:21:11.726Z,1018.07
2017-03-08T02:21:52.163Z,1018.11
2017-03-08T02:22:32.669Z,1018.12
2017-03-08T02:23:13.144Z,1018.14
2017-03-08T02:23:53.592Z,1018.1
2017-03-08T02:24:34.128Z,1018.11
2017-03-08T02:25:14.572Z,1018.09
2017-03-08T02:25:55.057Z,1018.06
2017-03-08T02:26:35.557Z,1018.04
2017-03-08T02:27:16.058Z,1017.99
2017-03-08T02:27:56.499Z,1018.07
2017-03-08T02:28:37.019Z,1018.03
2017-03-08T02:29:17.486Z,1018.01
2017-03-08T02:29:57.924Z,1017.97
2017-03-08T02:30:38.419Z,1018
2017-03-08T02:31:18.896Z,1018
2017-03-08T02:31:59.350Z,1017.98
2017-03-08T02:32:39.821Z,1017.95
2017-03-08T02:33:20.339Z,1017.96
2017-03-08T02:34:00.792Z,1017.97
2017-03-08T02:34:41.263Z,1018
2017-03-08T02:35:21.712Z,1018.01
2017-03-08T02:36:02.360Z,1018
2017-03-08T02:36:42.830Z,1017.95
2017-03-08T02:37:23.307Z,1017.97
2017-03-08T02:38:03.820Z,1017.94
2017-03-08T02:38:44.330Z,1017.93
2017-03-08T02:39:24.745Z,1017.94
2017-03-08T02:40:05.255Z,1017.93
2017-03-08T02:40:45.691Z,1017.95
2017-03-08T02:41:26.163Z,1017.94
2017-03-08T02:42:06.675Z,1017.91
2017-03-08T02:42:47.142Z,1017.9
2017-03-08T02:43:27.575Z,1017.91
2017-03-08T02:44:08.031Z,1017.89
2017-03-08T02:44:48.639Z,1017.86
2017-03-08T02:45:29.067Z,1017.84
2017-03-08T02:46:09.553Z,1017.87
2017-03-08T02:46:50.073Z,1017.89
2017-03-08T02:47:30.507Z,1017.88
2017-03-08T02:48:10.970Z,1017.89
2017-03-08T02:48:51.462Z,1017.93
2017-03-08T02:49:31.998Z,1017.95
2017-03-08T02:50:12.506Z,1017.95
2017-03-08T02:50:52.879Z,1017.9
2017-03-08T02:51:33.396Z,1017.92
2017-03-08T02:52:13.877Z,1017.93
2017-03-08T02:52:54.334Z,1017.9
2017-03-08T02:53:34.805Z,1017.87
2017-03-08T02:54:15.273Z,1017.88
2017-03-08T02:54:55.756Z,1017.88
2017-03-08T02:55:36.217Z,1017.87
2017-03-08T02:56:16.681Z,1017.85
2017-03-08T02:56:57.244Z,1017.88
2017-03-08T02:57:37.716Z,1017.85
2017-03-08T02:58:18.263Z,1017.83
2017-03-08T02:58:58.726Z,1017.84
2017-03-08T02:59:39.196Z,1017.81
2017-03-08T03:00:19.660Z,1017.84
2017-03-08T03:01:00.182Z,1017.83
2017-03-08T03:01:40.625Z,1017.8
2017-03-08T03:02:21.073Z,1017.78
2017-03-08T03:03:01.513Z,1017.76
2017-03-08T03:03:42.013Z,1017.75
2017-03-08T03:04:22.545Z,1017.78
2017-03-08T03:05:03.017Z,1017.78
2017-03-08T03:05:43.532Z,1017.82
2017-03-08T03:06:23.992Z,1017.8
2017-03-08T03:07:04.517Z,1017.79
2017-03-08T03:07:44.961Z,1017.82
2017-03-08T03:08:25.608Z,1017.78
2017-03-08T03:09:06.057Z,1017.74
2017-03-08T03:09:46.496Z,1017.78
2017-03-08T03:10:26.960Z,1017.72
2017-03-08T03:11:07.494Z,1017.72
2017-03-08T03:11:47.960Z,1017.7
2017-03-08T03:12:28.411Z,1017.73
2017-03-08T03:13:08.895Z,1017.71
2017-03-08T03:13:49.403Z,1017.71
2017-03-08T03:14:29.885Z,1017.76
2017-03-08T03:15:10.296Z,1017.75
2017-03-08T03:15:50.783Z,1017.73
2017-03-08T03:16:31.311Z,1017.76
2017-03-08T03:17:11.790Z,1017.75
2017-03-08T03:17:52.309Z,1017.71
2017-03-08T03:18:32.753Z,1017.74
2017-03-08T03:19:13.229Z,1017.69
2017-03-08T03:19:53.770Z,1017.74
2017-03-08T03:20:34.250Z,1017.71
2017-03-08T03:21:14.706Z,1017.73
2017-03-08T03:21:55.216Z,1017.72
2017-03-08T03:22:35.666Z,1017.69
2017-03-08T03:23:16.157Z,1017.71
2017-03-08T03:23:56.630Z,1017.68
2017-03-08T03:24:37.143Z,1017.67
2017-03-08T03:25:17.667Z,1017.6
2017-03-08T03:25:58.097Z,1017.56
2017-03-08T03:26:38.561Z,1017.55
2017-03-08T03:27:19.069Z,1017.44
2017-03-08T03:27:59.513Z,1017.46
2017-03-08T03:28:40.028Z,1017.47
2017-03-08T03:29:20.551Z,1017.44
2017-03-08T03:30:01.018Z,1017.41
2017-03-08T03:30:41.460Z,1017.38
2017-03-08T03:31:22.011Z,1017.36
2017-03-08T03:32:02.482Z,1017.36
2017-03-08T03:32:42.906Z,1017.34
2017-03-08T03:33:23.410Z,1017.35
2017-03-08T03:34:03.835Z,1017.35
2017-03-08T03:34:46.885Z,1017.37
2017-03-08T03:35:27.345Z,1017.38
2017-03-08T03:36:07.859Z,1017.4
2017-03-08T03:36:48.315Z,1017.41
2017-03-08T03:37:28.848Z,1017.44
2017-03-08T03:38:09.303Z,1017.44
2017-03-08T03:38:49.771Z,1017.43
2017-03-08T03:39:30.294Z,1017.41
2017-03-08T03:40:10.794Z,1017.4
2017-03-08T03:40:51.244Z,1017.39
2017-03-08T03:41:31.749Z,1017.39
2017-03-08T03:42:12.230Z,1017.42
2017-03-08T03:42:52.654Z,1017.45
2017-03-08T03:43:33.108Z,1017.45
2017-03-08T03:44:13.581Z,1017.43
2017-03-08T03:44:54.040Z,1017.44
2017-03-08T03:45:34.546Z,1017.45
2017-03-08T03:46:15.028Z,1017.45
2017-03-08T03:46:55.467Z,1017.42
2017-03-08T03:47:35.987Z,1017.46
2017-03-08T03:48:16.461Z,1017.46
2017-03-08T03:48:56.918Z,1017.43
2017-03-08T03:49:37.353Z,1017.47
2017-03-08T03:50:17.838Z,1017.44
2017-03-08T03:50:58.280Z,1017.38
2017-03-08T03:51:38.808Z,1017.36
2017-03-08T03:52:19.297Z,1017.39
2017-03-08T03:52:59.725Z,1017.41
2017-03-08T03:53:40.234Z,1017.41
2017-03-08T03:54:20.670Z,1017.38
2017-03-08T03:55:01.204Z,1017.35
2017-03-08T03:55:41.686Z,1017.39
2017-03-08T03:56:22.175Z,1017.39
2017-03-08T03:57:02.665Z,1017.37
2017-03-08T03:57:43.139Z,1017.38
2017-03-08T03:58:23.618Z,1017.35
2017-03-08T03:59:04.077Z,1017.33
2017-03-08T03:59:44.596Z,1017.39
2017-03-08T04:00:25.095Z,1017.36
2017-03-08T04:01:05.513Z,1017.39
2017-03-08T04:01:45.988Z,1017.37
2017-03-08T04:02:26.447Z,1017.39
2017-03-08T04:03:06.969Z,1017.36
2017-03-08T04:03:47.557Z,1017.35
2017-03-08T04:04:28.039Z,1017.38
2017-03-08T04:05:08.473Z,1017.35
2017-03-08T04:05:48.973Z,1017.39
2017-03-08T04:06:29.481Z,1017.36
2017-03-08T04:07:10.029Z,1017.38
2017-03-08T04:07:50.453Z,1017.34
2017-03-08T04:08:30.938Z,1017.36
2017-03-08T04:09:11.397Z,1017.39
2017-03-08T04:09:51.856Z,1017.37
2017-03-08T04:10:32.341Z,1017.39
2017-03-08T04:11:12.838Z,1017.48
2017-03-08T04:11:53.269Z,1017.42
2017-03-08T04:12:33.741Z,1017.43
2017-03-08T04:13:14.230Z,1017.43
2017-03-08T04:13:54.792Z,1017.4
2017-03-08T04:14:35.282Z,1017.41
2017-03-08T04:15:15.706Z,1017.38
2017-03-08T04:15:56.214Z,1017.39
2017-03-08T04:16:36.656Z,1017.39
2017-03-08T04:17:17.116Z,1017.34
2017-03-08T04:17:57.618Z,1017.36
2017-03-08T04:18:38.096Z,1017.32
2017-03-08T04:19:18.552Z,1017.35
2017-03-08T04:19:59.012Z,1017.31
2017-03-08T04:20:39.555Z,1017.3
2017-03-08T04:21:19.965Z,1017.28
2017-03-08T04:22:00.524Z,1017.27
2017-03-08T04:22:41.004Z,1017.3
2017-03-08T04:23:21.465Z,1017.33
2017-03-08T04:24:01.901Z,1017.34
2017-03-08T04:24:42.401Z,1017.32
2017-03-08T04:25:22.901Z,1017.33
2017-03-08T04:26:03.395Z,1017.36
2017-03-08T04:26:43.879Z,1017.39
2017-03-08T04:27:24.366Z,1017.38
2017-03-08T04:28:04.818Z,1017.45
2017-03-08T04:28:45.341Z,1017.44
2017-03-08T04:29:25.852Z,1017.47
2017-03-08T04:30:06.364Z,1017.42
2017-03-08T04:30:46.786Z,1017.48
2017-03-08T04:31:27.245Z,1017.45
2017-03-08T04:32:07.776Z,1017.52
2017-03-08T04:32:48.256Z,1017.46
2017-03-08T04:33:28.734Z,1017.5
2017-03-08T04:34:09.206Z,1017.47
2017-03-08T04:34:49.672Z,1017.4
2017-03-08T04:35:30.240Z,1017.46
2017-03-08T04:36:10.759Z,1017.49
2017-03-08T04:36:51.211Z,1017.49
2017-03-08T04:37:31.670Z,1017.47
2017-03-08T04:38:12.147Z,1017.54
2017-03-08T04:38:52.629Z,1017.55
2017-03-08T04:39:33.075Z,1017.54
2017-03-08T04:40:13.580Z,1017.57
2017-03-08T04:40:54.025Z,1017.53
2017-03-08T04:41:34.508Z,1017.53
2017-03-08T04:42:15.023Z,1017.54
2017-03-08T04:42:55.483Z,1017.56
2017-03-08T04:43:35.945Z,1017.62
2017-03-08T04:44:16.441Z,1017.59
2017-03-08T04:44:56.881Z,1017.62
2017-03-08T04:45:37.391Z,1017.63
2017-03-08T04:46:17.893Z,1017.66
2017-03-08T04:46:58.338Z,1017.66
2017-03-08T04:47:38.776Z,1017.67
2017-03-08T04:48:19.273Z,1017.69
2017-03-08T04:48:59.799Z,1017.67
2017-03-08T04:49:40.276Z,1017.63
2017-03-08T04:50:20.709Z,1017.68
2017-03-08T04:51:01.256Z,1017.65
2017-03-08T04:51:41.716Z,1017.66
2017-03-08T04:52:22.186Z,1017.63
2017-03-08T04:53:02.732Z,1017.64
2017-03-08T04:53:43.165Z,1017.63
2017-03-08T04:54:23.607Z,1017.6
2017-03-08T04:55:04.101Z,1017.63
2017-03-08T04:55:44.662Z,1017.6
2017-03-08T04:56:25.174Z,1017.55
2017-03-08T04:57:05.599Z,1017.52
2017-03-08T04:57:46.157Z,1017.56
2017-03-08T04:58:26.603Z,1017.49
2017-03-08T04:59:07.045Z,1017.5
2017-03-08T04:59:47.653Z,1017.49
2017-03-08T05:00:28.015Z,1017.46
2017-03-08T05:01:08.521Z,1017.49
2017-03-08T05:01:49.032Z,1017.46
2017-03-08T05:02:29.517Z,1017.45
2017-03-08T05:03:10.012Z,1017.43
2017-03-08T05:03:50.486Z,1017.42
2017-03-08T05:04:30.978Z,1017.41
2017-03-08T05:05:11.413Z,1017.47
2017-03-08T05:05:51.905Z,1017.44
2017-03-08T05:06:32.392Z,1017.48
2017-03-08T05:07:12.916Z,1017.5
2017-03-08T05:07:53.364Z,1017.47
2017-03-08T05:08:33.854Z,1017.46
2017-03-08T05:09:14.306Z,1017.47
2017-03-08T05:09:54.798Z,1017.44
2017-03-08T05:10:35.307Z,1017.45
2017-03-08T05:11:15.795Z,1017.46
2017-03-08T05:11:56.292Z,1017.45
2017-03-08T05:12:36.811Z,1017.47
2017-03-08T05:13:17.302Z,1017.47
2017-03-08T05:13:57.787Z,1017.5
2017-03-08T05:14:38.515Z,1017.47
2017-03-08T05:15:19.064Z,1017.49
2017-03-08T05:15:59.792Z,1017.47
2017-03-08T05:16:40.666Z,1017.49
2017-03-08T05:17:21.340Z,1017.43
2017-03-08T05:18:01.905Z,1017.47
2017-03-08T05:18:42.411Z,1017.43
2017-03-08T05:19:22.880Z,1017.4
2017-03-08T05:20:03.330Z,1017.42
2017-03-08T05:20:43.810Z,1017.42
2017-03-08T05:21:30.767Z,1017.43
2017-03-08T05:22:11.263Z,1017.41
2017-03-08T05:22:51.706Z,1017.43
2017-03-08T05:23:32.203Z,1017.41
2017-03-08T05:24:12.669Z,1017.43
2017-03-08T05:24:53.112Z,1017.41
2017-03-08T05:25:33.620Z,1017.39
2017-03-08T05:26:14.094Z,1017.43
2017-03-08T05:26:54.568Z,1017.41
2017-03-08T05:27:35.022Z,1017.43
2017-03-08T05:28:15.563Z,1017.41
2017-03-08T05:28:56.041Z,1017.45
2017-03-08T05:29:36.557Z,1017.41
2017-03-08T05:30:17.032Z,1017.43
2017-03-08T05:30:57.511Z,1017.42
2017-03-08T05:31:37.992Z,1017.43
2017-03-08T05:32:18.458Z,1017.35
2017-03-08T05:32:58.941Z,1017.41
2017-03-08T05:33:39.420Z,1017.42
2017-03-08T05:34:19.832Z,1017.37
2017-03-08T05:35:00.313Z,1017.33
2017-03-08T05:35:40.776Z,1017.35
2017-03-08T05:36:21.236Z,1017.3
2017-03-08T05:37:01.766Z,1017.28
2017-03-08T05:37:42.219Z,1017.26
2017-03-08T05:38:22.746Z,1017.28
2017-03-08T05:39:03.225Z,1017.28
2017-03-08T05:39:43.723Z,1017.29
2017-03-08T05:40:24.204Z,1017.25
2017-03-08T05:41:04.657Z,1017.29
2017-03-08T05:41:45.166Z,1017.34
2017-03-08T05:42:25.667Z,1017.4
2017-03-08T05:43:06.117Z,1017.35
2017-03-08T05:43:46.626Z,1017.39
2017-03-08T05:44:27.064Z,1017.4
2017-03-08T05:45:07.550Z,1017.37
2017-03-08T05:45:48.070Z,1017.35
2017-03-08T05:46:28.540Z,1017.38
2017-03-08T05:47:08.996Z,1017.33
2017-03-08T05:47:49.480Z,1017.34
2017-03-08T05:48:30.041Z,1017.3
2017-03-08T05:49:10.547Z,1017.29
2017-03-08T05:49:51.004Z,1017.27
2017-03-08T05:50:31.486Z,1017.27
2017-03-08T05:51:11.953Z,1017.27
2017-03-08T05:51:52.426Z,1017.29
2017-03-08T05:52:32.879Z,1017.3
2017-03-08T05:53:13.372Z,1017.33
2017-03-08T05:53:53.823Z,1017.3
2017-03-08T05:54:34.341Z,1017.33
2017-03-08T05:55:14.824Z,1017.29
2017-03-08T05:55:55.304Z,1017.3
2017-03-08T05:56:35.783Z,1017.3
2017-03-08T05:57:16.248Z,1017.26
2017-03-08T05:57:56.745Z,1017.32
2017-03-08T05:58:37.265Z,1017.29
2017-03-08T05:59:17.706Z,1017.27
2017-03-08T05:59:58.189Z,1017.2
2017-03-08T06:00:38.764Z,1017.14
2017-03-08T06:01:19.284Z,1017.1
2017-03-08T06:01:59.714Z,1017.08
2017-03-08T06:02:40.239Z,1017.04
2017-03-08T06:03:21.128Z,1017.05
2017-03-08T06:04:01.493Z,1017
2017-03-08T06:04:42.004Z,1016.99
2017-03-08T06:05:23.109Z,1016.97
2017-03-08T06:06:03.701Z,1016.92
2017-03-08T06:06:44.179Z,1016.97
2017-03-08T06:07:24.614Z,1016.91
2017-03-08T06:08:05.091Z,1016.87
2017-03-08T06:08:45.825Z,1016.86
2017-03-08T06:09:26.203Z,1016.86
2017-03-08T06:10:06.682Z,1016.84
2017-03-08T06:10:47.181Z,1016.79
2017-03-08T06:11:27.638Z,1016.76
2017-03-08T06:12:08.081Z,1016.74
2017-03-08T06:12:49.028Z,1016.78
2017-03-08T06:13:29.850Z,1016.72
2017-03-08T06:14:10.486Z,1016.69
2017-03-08T06:14:50.949Z,1016.69
2017-03-08T06:15:31.413Z,1016.68
2017-03-08T06:16:11.860Z,1016.67
2017-03-08T06:16:52.401Z,1016.69
2017-03-08T06:17:32.880Z,1016.64
2017-03-08T06:18:13.374Z,1016.64
2017-03-08T06:18:53.789Z,1016.61
2017-03-08T06:19:34.288Z,1016.6
2017-03-08T06:20:14.726Z,1016.55
2017-03-08T06:20:55.249Z,1016.59
2017-03-08T06:21:35.688Z,1016.56
2017-03-08T06:22:16.138Z,1016.57
2017-03-08T06:22:56.630Z,1016.51
2017-03-08T06:23:37.070Z,1016.45
2017-03-08T06:25:53.128Z,1016.39
2017-03-08T06:26:35.156Z,1016.41
2017-03-08T06:27:15.632Z,1016.4
2017-03-08T06:27:56.131Z,1016.39
2017-03-08T06:28:36.567Z,1016.38
2017-03-08T06:29:17.031Z,1016.4
2017-03-08T06:29:57.561Z,1016.37
2017-03-08T06:30:38.031Z,1016.32
2017-03-08T06:31:18.511Z,1016.34
2017-03-08T06:31:58.956Z,1016.34
2017-03-08T06:32:39.445Z,1016.29
2017-03-08T06:33:19.932Z,1016.31
2017-03-08T06:34:00.443Z,1016.32
2017-03-08T06:34:40.876Z,1016.27
2017-03-08T06:35:21.350Z,1016.32
2017-03-08T06:36:01.822Z,1016.3
2017-03-08T06:36:42.290Z,1016.24
2017-03-08T06:37:22.784Z,1016.27
2017-03-08T06:38:03.305Z,1016.23
2017-03-08T06:38:43.793Z,1016.26
2017-03-08T06:39:24.226Z,1016.21
2017-03-08T06:40:04.679Z,1016.22
2017-03-08T06:40:45.139Z,1016.25
2017-03-08T06:41:25.654Z,1016.27
2017-03-08T06:42:06.087Z,1016.27
2017-03-08T06:42:46.560Z,1016.27
2017-03-08T06:43:27.071Z,1016.31
2017-03-08T06:44:07.534Z,1016.33
2017-03-08T06:44:48.033Z,1016.39
2017-03-08T06:45:28.474Z,1016.36
2017-03-08T06:46:08.967Z,1016.36
2017-03-08T06:46:49.473Z,1016.34
2017-03-08T06:47:29.929Z,1016.38
2017-03-08T06:48:10.384Z,1016.35
2017-03-08T06:48:50.848Z,1016.39
2017-03-08T06:49:31.349Z,1016.4
2017-03-08T06:50:11.832Z,1016.44
2017-03-08T06:50:52.324Z,1016.36
2017-03-08T06:51:32.796Z,1016.42
2017-03-08T06:52:13.232Z,1016.39
2017-03-08T06:52:53.689Z,1016.4
2017-03-08T06:53:34.181Z,1016.38
2017-03-08T06:54:14.662Z,1016.31
2017-03-08T06:54:55.103Z,1016.28
2017-03-08T06:55:35.587Z,1016.28
2017-03-08T06:56:16.084Z,1016.26
2017-03-08T06:56:56.550Z,1016.3
2017-03-08T06:57:36.994Z,1016.25
2017-03-08T06:58:17.463Z,1016.27
2017-03-08T06:58:57.947Z,1016.4
2017-03-08T06:59:38.441Z,1016.3
2017-03-08T07:00:18.941Z,1016.29
2017-03-08T07:00:59.399Z,1016.29
2017-03-08T07:01:39.877Z,1016.22
2017-03-08T07:02:20.329Z,1016.16
2017-03-08T07:03:00.817Z,1016.16
2017-03-08T07:03:41.306Z,1016.2
2017-03-08T07:04:21.790Z,1016.14
2017-03-08T07:05:02.242Z,1016.19
2017-03-08T07:05:42.710Z,1016.2
2017-03-08T07:06:23.146Z,1016.23
2017-03-08T07:07:03.648Z,1016.18
2017-03-08T07:07:44.128Z,1016.2
2017-03-08T07:08:24.582Z,1016.21
2017-03-08T07:09:05.049Z,1016.2
2017-03-08T07:09:45.499Z,1016.22
2017-03-08T07:10:25.997Z,1016.19
2017-03-08T07:11:06.497Z,1016.22
2017-03-08T07:11:46.976Z,1016.25
2017-03-08T07:13:46.484Z,1016.26
2017-03-08T07:14:27.604Z,1016.31
2017-03-08T07:15:08.086Z,1016.26
2017-03-08T07:15:48.541Z,1016.23
2017-03-08T07:16:29.025Z,1016.27
2017-03-08T07:17:09.503Z,1016.29
2017-03-08T07:17:50.003Z,1016.29
2017-03-08T07:18:30.516Z,1016.32
2017-03-08T07:19:10.987Z,1016.31
2017-03-08T07:19:51.487Z,1016.3
2017-03-08T07:20:31.995Z,1016.28
2017-03-08T07:21:12.460Z,1016.24
2017-03-08T07:21:54.553Z,1016.2
2017-03-08T07:22:35.014Z,1016.21
2017-03-08T07:23:15.473Z,1016.23
2017-03-08T07:23:55.985Z,1016.16
2017-03-08T07:24:36.452Z,1016.14
2017-03-08T07:25:16.887Z,1016.1
2017-03-08T07:25:57.378Z,1016.09
2017-03-08T07:26:37.864Z,1016.13
2017-03-08T07:27:18.310Z,1016.08
2017-03-08T07:27:58.825Z,1016.05
2017-03-08T07:28:39.279Z,1016.02
2017-03-08T07:29:19.739Z,1016.03
2017-03-08T07:30:00.213Z,1016.06
2017-03-08T07:30:40.707Z,1016
2017-03-08T07:31:21.166Z,1016.1
2017-03-08T07:32:01.652Z,1016.03
2017-03-08T07:32:42.153Z,1016.04
2017-03-08T07:33:22.574Z,1016.03
2017-03-08T07:34:03.059Z,1016.03
2017-03-08T07:34:43.521Z,1016
2017-03-08T07:35:24.040Z,1016.02
2017-03-08T07:36:04.503Z,1016.03
2017-03-08T07:36:45.008Z,1016.03
2017-03-08T07:37:25.485Z,1016
2017-03-08T07:38:05.972Z,1016
2017-03-08T07:38:46.452Z,1016.03
2017-03-08T07:39:26.930Z,1015.96
2017-03-08T07:40:07.413Z,1016.01
2017-03-08T07:40:47.877Z,1015.95
2017-03-08T07:41:29.192Z,1015.94
2017-03-08T07:42:09.578Z,1015.96
2017-03-08T07:42:50.041Z,1015.9
2017-03-08T07:43:30.516Z,1015.91
2017-03-08T07:44:10.993Z,1015.93
2017-03-08T07:44:51.439Z,1015.95
2017-03-08T07:45:31.925Z,1015.91
2017-03-08T07:46:12.434Z,1015.91
2017-03-08T07:46:52.919Z,1015.84
2017-03-08T07:47:33.420Z,1015.89
2017-03-08T07:48:13.863Z,1015.86
2017-03-08T07:48:54.351Z,1015.91
2017-03-08T07:49:34.847Z,1015.91
2017-03-08T07:50:15.913Z,1015.86
2017-03-08T07:50:56.393Z,1015.86
2017-03-08T07:51:37.576Z,1015.83
2017-03-08T07:52:18.033Z,1015.87
2017-03-08T07:52:58.569Z,1015.81
2017-03-08T07:53:39.311Z,1015.74
2017-03-08T07:54:20.021Z,1015.77
2017-03-08T07:55:00.721Z,1015.79
2017-03-08T07:55:42.737Z,1015.73
2017-03-08T07:56:23.206Z,1015.72
2017-03-08T07:57:03.681Z,1015.72
2017-03-08T07:57:44.124Z,1015.74
2017-03-08T07:58:24.616Z,1015.71
2017-03-08T07:59:05.106Z,1015.68
2017-03-08T07:59:45.546Z,1015.56
2017-03-08T08:00:26.066Z,1015.62
2017-03-08T08:01:06.520Z,1015.59
2017-03-08T08:01:47.031Z,1015.57
2017-03-08T08:02:27.860Z,1015.61
2017-03-08T08:03:08.551Z,1015.54
2017-03-08T08:03:54.677Z,1015.5
2017-03-08T08:04:41.527Z,1015.55
2017-03-08T08:05:29.560Z,1015.45
2017-03-08T08:06:10.102Z,1015.44
2017-03-08T08:06:50.740Z,1015.47
2017-03-08T08:07:32.543Z,1015.49
2017-03-08T08:08:14.277Z,1015.48
2017-03-08T08:08:54.971Z,1015.42
2017-03-08T08:09:35.800Z,1015.43
2017-03-08T08:10:22.936Z,1015.4
2017-03-08T08:11:11.465Z,1015.48
2017-03-08T08:11:58.732Z,1015.37
2017-03-08T08:12:45.566Z,1015.41
2017-03-08T08:13:27.865Z,1015.34
2017-03-08T08:14:08.484Z,1015.37
2017-03-08T08:14:49.264Z,1015.34
2017-03-08T08:15:30.035Z,1015.4
2017-03-08T08:16:10.731Z,1015.37